Time;durP1;ratioP1;P1;durP2;ratioP2;P2;SDS_P1;SDS_P2;PMS_P1;PMS_P2;Temp;Humidity;BMP_temperature;BMP_pressure;BME280_temperature;BME280_humidity;BME280_pressure;Samples;Min_cycle;Max_cycle;Signal;HPM_P1;HPM_P2
2022/06/17 00:00:15;;;;;;;5.18;2.03;;;19.10;99.90;;;;;;5045546;28;20204;-77
2022/06/17 00:02:41;;;;;;;3.75;1.85;;;19.10;99.90;;;;;;5051356;28;20426;-77
2022/06/17 00:05:07;;;;;;;5.80;2.10;;;19.00;99.90;;;;;;5045158;28;20239;-77
2022/06/17 00:07:34;;;;;;;3.28;1.90;;;19.00;99.90;;;;;;5041879;28;20231;-77
2022/06/17 00:09:59;;;;;;;4.63;1.98;;;19.00;99.90;;;;;;5045245;28;20180;-76
2022/06/17 00:12:25;;;;;;;2.88;1.75;;;19.00;99.90;;;;;;5051316;28;20208;-77
2022/06/17 00:17:35;;;;;;;2.78;1.55;;;19.00;99.90;;;;;;5035503;28;20299;-76
2022/06/17 00:20:04;;;;;;;3.90;1.50;;;19.00;99.90;;;;;;5040291;28;20223;-76
2022/06/17 00:22:29;;;;;;;3.50;1.35;;;19.00;99.90;;;;;;5031398;28;20179;-76
2022/06/17 00:24:55;;;;;;;1.80;1.25;;;18.90;99.90;;;;;;5033884;28;20216;-76
2022/06/17 00:27:21;;;;;;;3.45;1.33;;;18.90;99.90;;;;;;5049469;28;20204;-75
2022/06/17 00:29:46;;;;;;;3.15;1.20;;;18.90;99.90;;;;;;5036381;28;20209;-77
2022/06/17 00:32:12;;;;;;;6.03;1.42;;;18.90;99.90;;;;;;5044751;28;20214;-77
2022/06/17 00:34:37;;;;;;;2.80;1.30;;;18.80;99.90;;;;;;5042835;28;20211;-77
2022/06/17 00:37:06;;;;;;;3.15;1.40;;;18.80;99.90;;;;;;5045576;28;20203;-77
2022/06/17 00:39:33;;;;;;;1.73;1.20;;;18.80;99.90;;;;;;5040276;28;20219;-77
2022/06/17 00:42:05;;;;;;;2.17;1.10;;;18.80;99.90;;;;;;5040536;28;20299;-76
2022/06/17 00:44:44;;;;;;;2.35;1.42;;;18.70;99.90;;;;;;5039218;28;20216;-76
2022/06/17 00:47:28;;;;;;;2.10;1.40;;;18.70;99.90;;;;;;5039664;28;20226;-77
2022/06/17 00:49:59;;;;;;;2.25;1.20;;;18.70;99.90;;;;;;5044247;28;20325;-77
2022/06/17 00:52:43;;;;;;;3.53;2.30;;;18.70;99.90;;;;;;5035531;28;20592;-76
2022/06/17 00:55:16;;;;;;;5.50;3.08;;;18.60;99.90;;;;;;5044415;28;20200;-77
2022/06/17 00:57:42;;;;;;;5.28;2.90;;;18.60;99.90;;;;;;5043302;28;20211;-75
2022/06/17 01:00:07;;;;;;;3.95;1.92;;;18.60;99.90;;;;;;5049995;28;20210;-76
2022/06/17 01:02:37;;;;;;;2.40;1.73;;;18.50;99.90;;;;;;5039597;28;20203;-77
2022/06/17 01:05:04;;;;;;;4.53;2.58;;;18.50;99.90;;;;;;5035535;28;20513;-77
2022/06/17 01:07:38;;;;;;;3.63;2.45;;;18.50;99.90;;;;;;5043045;28;20543;-77
2022/06/17 01:10:11;;;;;;;6.03;3.55;;;18.40;99.90;;;;;;5041765;28;20175;-76
2022/06/17 01:12:43;;;;;;;3.47;1.80;;;18.40;99.90;;;;;;5039573;28;20211;-77
2022/06/17 01:15:13;;;;;;;4.00;2.35;;;18.40;99.90;;;;;;5030606;28;20212;-77
2022/06/17 01:17:40;;;;;;;3.63;1.55;;;18.20;99.90;;;;;;5029835;28;20204;-76
2022/06/17 01:20:09;;;;;;;2.45;1.48;;;18.20;99.90;;;;;;5036117;28;20207;-77
2022/06/17 01:22:40;;;;;;;2.55;1.27;;;18.30;99.90;;;;;;5039628;28;20279;-76
2022/06/17 01:25:45;;;;;;;1.73;1.50;;;18.20;99.90;;;;;;5033775;28;20231;-76
2022/06/17 01:28:15;;;;;;;5.80;2.75;;;18.20;99.90;;;;;;4973577;28;20208;-77
2022/06/17 01:30:51;;;;;;;2.50;1.40;;;18.20;99.90;;;;;;4989907;28;21592;-76
2022/06/17 01:33:31;;;;;;;4.57;1.80;;;18.10;99.90;;;;;;5016008;28;20718;-76
2022/06/17 01:36:25;;;;;;;2.95;1.75;;;18.10;99.90;;;;;;5035944;28;20203;-76
2022/06/17 01:38:56;;;;;;;3.33;1.55;;;17.90;99.90;;;;;;5037395;28;20238;-75
2022/06/17 01:41:30;;;;;;;1.98;0.88;;;17.90;99.90;;;;;;5037666;28;20312;-76
2022/06/17 01:44:18;;;;;;;2.13;1.38;;;18.00;99.90;;;;;;5044007;28;20239;-78
2022/06/17 01:46:47;;;;;;;2.85;1.40;;;17.90;99.90;;;;;;5027141;28;20212;-76
2022/06/17 01:49:19;;;;;;;4.05;2.00;;;17.90;99.90;;;;;;5036473;28;20686;-76
2022/06/17 01:51:55;;;;;;;3.10;1.48;;;17.90;99.90;;;;;;5041950;28;20180;-75
2022/06/17 01:54:26;;;;;;;3.25;1.50;;;17.90;99.90;;;;;;5043268;28;20211;-76
2022/06/17 01:56:54;;;;;;;2.00;1.27;;;17.80;99.90;;;;;;5046189;28;20204;-75
2022/06/17 01:59:33;;;;;;;3.53;1.20;;;17.80;99.90;;;;;;5045355;28;20356;-75
2022/06/17 02:02:02;;;;;;;3.40;1.27;;;17.80;99.90;;;;;;5046502;28;20208;-76
2022/06/17 02:04:39;;;;;;;3.35;1.27;;;17.70;99.90;;;;;;5041673;28;20554;-75
2022/06/17 02:07:23;;;;;;;2.63;1.48;;;17.70;99.90;;;;;;5054378;28;20708;-75
2022/06/17 02:09:49;;;;;;;2.53;1.55;;;17.70;99.90;;;;;;5049789;28;20204;-76
2022/06/17 02:12:18;;;;;;;3.83;1.48;;;17.70;99.90;;;;;;5039899;28;20208;-75
2022/06/17 02:14:46;;;;;;;2.67;1.40;;;17.70;99.90;;;;;;5044119;28;20207;-76
2022/06/17 02:17:12;;;;;;;4.45;1.75;;;17.70;99.90;;;;;;5052680;28;20212;-76
2022/06/17 02:19:41;;;;;;;3.75;1.42;;;17.70;99.90;;;;;;5041348;28;20295;-76
2022/06/17 02:22:10;;;;;;;2.83;2.05;;;17.70;99.90;;;;;;5033370;28;20176;-76
2022/06/17 02:24:38;;;;;;;8.60;4.70;;;17.60;99.90;;;;;;5044335;28;20204;-75
2022/06/17 02:27:08;;;;;;;7.53;3.47;;;17.50;99.90;;;;;;5037975;28;20226;-73
2022/06/17 02:29:36;;;;;;;7.45;3.58;;;17.50;99.90;;;;;;5033302;28;20235;-77
2022/06/17 02:32:05;;;;;;;9.70;6.20;;;17.60;99.90;;;;;;5032231;28;20204;-76
2022/06/17 02:34:31;;;;;;;5.70;3.10;;;17.60;99.90;;;;;;5041456;28;20192;-76
2022/06/17 02:37:04;;;;;;;3.70;1.92;;;17.60;99.90;;;;;;5044492;28;20172;-77
2022/06/17 02:39:29;;;;;;;2.50;1.50;;;17.50;99.90;;;;;;5049759;28;20207;-76
2022/06/17 02:41:56;;;;;;;3.30;1.40;;;17.50;99.90;;;;;;5051895;28;20260;-76
2022/06/17 02:44:27;;;;;;;2.28;1.08;;;17.50;99.90;;;;;;5051534;28;20226;-75
2022/06/17 02:46:54;;;;;;;2.80;1.30;;;17.50;99.90;;;;;;5051471;28;20222;-76
2022/06/17 02:49:31;;;;;;;4.20;1.40;;;17.60;99.90;;;;;;5044603;28;20172;-76
2022/06/17 02:51:58;;;;;;;4.47;1.33;;;17.50;99.90;;;;;;5045612;28;20176;-77
2022/06/17 02:54:29;;;;;;;3.28;1.40;;;17.50;99.90;;;;;;5051451;28;20208;-77
2022/06/17 02:56:57;;;;;;;2.42;1.40;;;17.50;99.90;;;;;;5051838;28;20326;-75
2022/06/17 02:59:37;;;;;;;1.77;1.60;;;17.50;99.90;;;;;;5050948;28;20300;-76
2022/06/17 03:02:18;;;;;;;2.17;1.40;;;17.50;99.90;;;;;;5052900;28;20749;-77
2022/06/17 03:04:45;;;;;;;2.78;1.60;;;17.50;99.90;;;;;;5051167;28;20323;-76
2022/06/17 03:07:17;;;;;;;4.82;1.77;;;17.40;99.90;;;;;;5051758;28;20207;-76
2022/06/17 03:09:43;;;;;;;2.08;1.50;;;17.40;99.90;;;;;;5052335;28;20219;-76
2022/06/17 03:12:11;;;;;;;2.70;1.58;;;17.50;99.90;;;;;;5051309;28;20203;-77
2022/06/17 03:15:07;;;;;;;4.30;1.55;;;17.40;99.90;;;;;;5051812;28;20204;-76
2022/06/17 03:17:38;;;;;;;3.45;1.80;;;17.40;99.90;;;;;;5051101;28;20196;-76
2022/06/17 03:20:06;;;;;;;2.00;1.67;;;17.40;99.90;;;;;;5051306;28;20238;-74
2022/06/17 03:22:32;;;;;;;2.60;2.10;;;17.60;99.90;;;;;;5051361;28;20211;-76
2022/06/17 03:25:04;;;;;;;4.72;1.80;;;18.20;99.90;;;;;;5052142;28;20554;-76
2022/06/17 03:27:42;;;;;;;2.22;1.73;;;19.80;99.90;;;;;;5051491;28;20207;-76
2022/06/17 03:30:11;;;;;;;2.85;1.65;;;21.00;99.90;;;;;;5034475;28;20348;-76
2022/06/17 03:32:41;;;;;;;4.55;2.00;;;21.40;99.90;;;;;;5051980;28;20758;-76
2022/06/17 03:35:20;;;;;;;4.85;2.30;;;21.70;99.90;;;;;;5052327;28;20211;-78
2022/06/17 03:38:02;;;;;;;5.25;1.92;;;22.80;99.90;;;;;;5050261;28;20222;-77
2022/06/17 03:40:33;;;;;;;4.70;2.00;;;23.60;99.90;;;;;;5051824;28;20178;-76
2022/06/17 03:43:11;;;;;;;3.75;1.90;;;24.40;99.90;;;;;;5051152;28;20255;-76
2022/06/17 03:46:05;;;;;;;2.45;1.50;;;24.70;99.90;;;;;;5050137;28;20227;-76
2022/06/17 03:48:43;;;;;;;3.03;2.05;;;24.70;99.90;;;;;;5051827;28;20638;-77
2022/06/17 03:51:24;;;;;;;4.78;1.73;;;26.00;99.90;;;;;;5052003;28;20234;-77
2022/06/17 03:53:51;;;;;;;3.22;1.85;;;26.00;99.90;;;;;;5050759;28;20291;-77
2022/06/17 03:56:21;;;;;;;3.72;1.73;;;25.90;99.90;;;;;;5050463;28;20268;-77
2022/06/17 03:58:48;;;;;;;3.78;1.90;;;26.60;99.90;;;;;;5042279;28;20607;-76
2022/06/17 04:01:22;;;;;;;5.20;1.90;;;26.70;99.90;;;;;;5050332;28;20179;-76
2022/06/17 04:03:53;;;;;;;3.40;1.65;;;27.00;99.90;;;;;;5044333;28;20535;-77
2022/06/17 04:06:25;;;;;;;3.40;1.60;;;27.50;99.90;;;;;;5051710;28;20793;-77
2022/06/17 04:09:05;;;;;;;3.13;2.08;;;28.10;99.90;;;;;;5043756;28;20299;-77
2022/06/17 04:11:39;;;;;;;2.53;1.67;;;28.40;98.90;;;;;;5050398;28;20249;-77
2022/06/17 04:14:14;;;;;;;4.35;1.98;;;28.80;98.20;;;;;;5050319;28;20210;-77
2022/06/17 04:17:02;;;;;;;3.67;2.03;;;29.20;97.20;;;;;;5050732;28;20206;-77
2022/06/17 04:19:29;;;;;;;2.80;1.80;;;29.40;96.50;;;;;;5050181;28;20199;-77
2022/06/17 04:22:05;;;;;;;3.30;1.95;;;29.80;95.90;;;;;;5051169;28;20175;-77
2022/06/17 04:24:32;;;;;;;4.47;2.08;;;30.40;94.80;;;;;;5042830;28;20623;-76
2022/06/17 04:27:01;;;;;;;1.85;1.58;;;30.50;94.00;;;;;;5049176;28;20211;-75
2022/06/17 04:29:49;;;;;;;3.17;2.25;;;30.50;93.60;;;;;;5049686;28;20294;-75
2022/06/17 04:32:22;;;;;;;4.97;2.25;;;30.40;93.00;;;;;;5051658;28;20597;-75
2022/06/17 04:34:47;;;;;;;3.03;2.55;;;30.00;92.90;;;;;;5042052;28;20298;-76
2022/06/17 04:37:19;;;;;;;4.78;2.17;;;27.70;94.70;;;;;;5049528;28;20226;-76
2022/06/17 04:39:58;;;;;;;4.30;2.30;;;26.10;97.00;;;;;;5052276;28;20604;-75
2022/06/17 04:42:35;;;;;;;4.10;2.25;;;25.10;99.30;;;;;;5050906;28;20208;-75
2022/06/17 04:45:01;;;;;;;4.95;2.67;;;24.40;99.90;;;;;;5050837;28;20215;-75
2022/06/17 04:47:27;;;;;;;4.10;2.13;;;24.70;99.90;;;;;;5050876;28;20578;-76
2022/06/17 04:49:59;;;;;;;5.82;2.45;;;26.70;99.90;;;;;;5051152;28;20268;-76
2022/06/17 04:52:36;;;;;;;4.63;2.25;;;27.90;99.00;;;;;;5051738;28;20271;-76
2022/06/17 04:55:06;;;;;;;3.78;2.38;;;29.20;96.90;;;;;;5052102;28;20506;-76
2022/06/17 04:57:32;;;;;;;6.15;2.63;;;29.90;95.60;;;;;;5034406;28;20208;-77
2022/06/17 04:59:59;;;;;;;4.00;2.45;;;31.10;94.20;;;;;;5041015;28;20215;-76
2022/06/17 05:02:29;;;;;;;6.10;2.67;;;31.40;93.00;;;;;;5049457;28;20219;-76
2022/06/17 05:05:00;;;;;;;6.38;3.30;;;32.20;92.00;;;;;;5041253;28;20696;-76
2022/06/17 05:07:31;;;;;;;7.00;2.67;;;32.50;91.30;;;;;;5040304;28;20194;-77
2022/06/17 05:10:05;;;;;;;8.45;2.88;;;32.80;90.50;;;;;;5032047;28;20210;-77
2022/06/17 05:12:36;;;;;;;4.97;2.70;;;32.80;90.10;;;;;;5048908;28;20202;-77
2022/06/17 05:15:09;;;;;;;6.20;3.22;;;32.30;90.30;;;;;;5045383;28;20215;-77
2022/06/17 05:17:35;;;;;;;4.65;2.65;;;32.30;89.90;;;;;;5038683;28;20206;-77
2022/06/17 05:20:01;;;;;;;5.75;2.72;;;32.60;90.10;;;;;;5035874;28;20225;-77
2022/06/17 05:22:33;;;;;;;8.07;3.20;;;33.20;88.50;;;;;;5041190;28;20207;-77
2022/06/17 05:25:00;;;;;;;5.80;2.90;;;33.10;87.50;;;;;;5043760;28;20206;-74
2022/06/17 05:27:26;;;;;;;3.55;3.05;;;33.40;86.50;;;;;;5048875;28;20306;-74
2022/06/17 05:29:52;;;;;;;5.32;2.95;;;32.80;87.00;;;;;;5049158;28;20789;-74
2022/06/17 05:32:19;;;;;;;3.92;2.67;;;33.20;86.10;;;;;;5050794;28;20210;-74
2022/06/17 05:34:46;;;;;;;7.35;3.25;;;33.90;85.20;;;;;;5050899;28;20676;-74
2022/06/17 05:37:12;;;;;;;4.80;3.10;;;33.80;84.30;;;;;;5052308;28;20187;-75
2022/06/17 05:39:38;;;;;;;4.50;3.15;;;33.70;84.50;;;;;;5046270;28;20167;-75
2022/06/17 05:42:05;;;;;;;5.28;2.95;;;33.90;83.20;;;;;;5053270;28;20191;-74
2022/06/17 05:44:31;;;;;;;5.60;2.80;;;33.70;83.10;;;;;;5059066;23;20215;-73
2022/06/17 05:46:57;;;;;;;5.00;2.92;;;33.40;83.60;;;;;;5035970;28;20226;-74
2022/06/17 05:49:23;;;;;;;5.13;3.08;;;34.10;82.30;;;;;;5052866;28;20629;-73
2022/06/17 05:51:49;;;;;;;4.25;2.70;;;35.10;80.60;;;;;;5036663;28;20179;-73
2022/06/17 05:54:14;;;;;;;4.80;2.55;;;35.20;79.20;;;;;;5036080;28;20214;-74
2022/06/17 05:56:40;;;;;;;5.82;2.92;;;34.50;79.30;;;;;;5053069;28;20202;-75
2022/06/17 05:59:06;;;;;;;5.47;3.35;;;34.30;79.50;;;;;;5053491;28;20202;-73
2022/06/17 06:01:31;;;;;;;4.00;2.55;;;35.00;77.80;;;;;;5053717;28;20218;-73
2022/06/17 06:03:57;;;;;;;5.18;3.00;;;34.70;77.80;;;;;;5036332;28;20183;-73
2022/06/17 06:06:22;;;;;;;4.80;2.38;;;34.50;77.60;;;;;;5035506;28;20214;-73
2022/06/17 06:08:48;;;;;;;4.07;3.00;;;34.70;78.10;;;;;;5035434;28;20199;-73
2022/06/17 06:11:14;;;;;;;3.05;2.65;;;34.80;77.10;;;;;;5053604;28;20671;-73
2022/06/17 06:13:40;;;;;;;4.70;2.65;;;34.70;76.40;;;;;;5035014;28;20234;-74
2022/06/17 06:16:07;;;;;;;7.45;2.70;;;35.30;75.30;;;;;;5036075;28;20218;-73
2022/06/17 06:18:36;;;;;;;3.58;3.13;;;34.60;75.50;;;;;;5035788;28;20702;-73
2022/06/17 06:21:04;;;;;;;6.40;2.80;;;34.80;75.50;;;;;;5035623;28;20207;-74
2022/06/17 06:23:35;;;;;;;3.78;2.90;;;34.20;76.50;;;;;;5035463;28;20202;-74
2022/06/17 06:26:01;;;;;;;7.30;3.08;;;35.10;76.00;;;;;;5035229;28;20219;-75
2022/06/17 06:28:27;;;;;;;7.13;3.00;;;35.40;74.70;;;;;;5044493;28;20190;-75
2022/06/17 06:31:18;;;;;;;5.93;3.42;;;35.70;74.20;;;;;;5035833;28;20187;-75
2022/06/17 06:33:43;;;;;;;4.50;2.90;;;36.00;73.40;;;;;;5053398;28;20238;-75
2022/06/17 06:36:09;;;;;;;6.38;3.15;;;36.10;72.80;;;;;;5046488;28;20207;-75
2022/06/17 06:38:34;;;;;;;4.30;2.80;;;35.70;72.90;;;;;;5033486;28;20672;-74
2022/06/17 06:41:02;;;;;;;4.93;3.00;;;35.00;73.00;;;;;;5035705;28;20336;-74
2022/06/17 06:43:28;;;;;;;5.70;3.13;;;35.60;72.60;;;;;;5035341;28;20171;-75
2022/06/17 06:45:53;;;;;;;6.10;3.25;;;35.80;71.60;;;;;;5049184;28;20224;-74
2022/06/17 06:48:22;;;;;;;4.15;3.42;;;36.50;72.30;;;;;;5022738;28;20268;-75
2022/06/17 06:50:49;;;;;;;4.30;3.17;;;36.90;69.70;;;;;;5034835;28;20198;-74
2022/06/17 06:53:14;;;;;;;6.90;3.30;;;36.70;69.10;;;;;;5034914;28;20642;-75
2022/06/17 06:55:40;;;;;;;4.93;3.03;;;36.50;70.00;;;;;;5034382;28;20327;-74
2022/06/17 06:58:13;;;;;;;4.43;2.67;;;36.90;69.20;;;;;;5034795;28;20580;-74
2022/06/17 07:00:42;;;;;;;3.83;2.95;;;36.80;69.10;;;;;;5052735;28;20740;-74
2022/06/17 07:03:08;;;;;;;4.90;2.60;;;36.50;68.50;;;;;;5034604;28;20213;-74
2022/06/17 07:05:36;;;;;;;4.78;3.55;;;36.60;69.10;;;;;;5052230;28;20215;-75
2022/06/17 07:08:03;;;;;;;6.40;3.00;;;36.60;68.60;;;;;;5052670;28;20610;-74
2022/06/17 07:10:33;;;;;;;3.88;3.17;;;37.20;67.90;;;;;;5052064;28;20171;-74
2022/06/17 07:12:59;;;;;;;5.00;3.28;;;37.60;67.20;;;;;;5035634;28;20179;-74
2022/06/17 07:15:25;;;;;;;5.45;3.15;;;37.30;66.60;;;;;;5053523;28;20211;-74
2022/06/17 07:18:04;;;;;;;5.22;2.63;;;37.10;66.70;;;;;;5034584;28;20302;-74
2022/06/17 07:20:36;;;;;;;5.75;3.10;;;37.10;67.70;;;;;;5034270;28;20209;-74
2022/06/17 07:23:16;;;;;;;3.22;2.50;;;37.40;66.30;;;;;;5034351;28;20223;-75
2022/06/17 07:25:43;;;;;;;7.70;3.10;;;37.00;66.90;;;;;;5033504;28;20297;-73
2022/06/17 07:28:15;;;;;;;5.18;2.80;;;37.30;66.00;;;;;;5052049;28;20744;-74
2022/06/17 07:30:44;;;;;;;3.95;3.00;;;37.60;65.80;;;;;;5034038;28;20298;-74
2022/06/17 07:33:11;;;;;;;6.88;2.40;;;37.00;65.20;;;;;;5052132;28;20578;-73
2022/06/17 07:35:37;;;;;;;3.33;2.78;;;36.60;65.60;;;;;;5051598;28;20227;-73
2022/06/17 07:40:50;;;;;;;5.35;2.60;;;35.20;68.30;;;;;;5052065;28;20248;-73
2022/06/17 07:43:18;;;;;;;4.13;2.38;;;34.80;68.10;;;;;;5033785;28;20266;-74
2022/06/17 07:45:45;;;;;;;3.63;2.67;;;34.20;69.10;;;;;;5043529;28;20202;-73
2022/06/17 07:48:13;;;;;;;8.18;3.20;;;34.70;69.70;;;;;;5033754;28;20199;-73
2022/06/17 07:50:41;;;;;;;4.32;2.20;;;35.30;68.40;;;;;;5051737;28;20207;-74
2022/06/17 07:53:07;;;;;;;3.88;2.20;;;35.20;68.80;;;;;;5033711;28;20225;-74
2022/06/17 07:55:33;;;;;;;3.15;2.45;;;35.40;67.80;;;;;;5025197;28;20250;-73
2022/06/17 07:57:59;;;;;;;6.10;2.50;;;35.70;67.90;;;;;;5034075;28;20592;-75
2022/06/17 08:00:35;;;;;;;4.18;2.40;;;35.20;68.20;;;;;;5051121;28;20567;-75
2022/06/17 08:03:01;;;;;;;5.88;2.50;;;35.50;67.70;;;;;;5033782;28;20261;-73
2022/06/17 08:05:27;;;;;;;6.05;2.65;;;35.70;67.30;;;;;;5050650;28;20268;-73
2022/06/17 08:07:54;;;;;;;9.65;6.03;;;35.90;67.00;;;;;;5051394;28;20211;-73
2022/06/17 08:10:24;;;;;;;9.00;2.67;;;35.90;66.80;;;;;;5033301;28;20167;-73
2022/06/17 08:12:50;;;;;;;7.13;3.85;;;36.20;66.40;;;;;;5026055;28;20262;-74
2022/06/17 08:15:16;;;;;;;4.15;2.33;;;36.10;66.00;;;;;;5050883;28;20287;-73
2022/06/17 08:17:42;;;;;;;3.97;2.65;;;36.00;65.70;;;;;;5033034;28;20234;-72
2022/06/17 08:20:24;;;;;;;4.35;2.00;;;36.30;65.40;;;;;;5033100;28;20207;-73
2022/06/17 08:22:50;;;;;;;4.93;1.98;;;36.60;64.30;;;;;;5032976;28;20695;-74
2022/06/17 08:25:16;;;;;;;2.75;1.95;;;36.80;63.80;;;;;;5050903;28;20602;-73
2022/06/17 08:27:50;;;;;;;2.72;1.73;;;36.80;63.80;;;;;;5051325;28;20179;-73
2022/06/17 08:30:18;;;;;;;3.47;1.90;;;37.30;63.40;;;;;;5032708;28;20282;-73
2022/06/17 08:32:48;;;;;;;2.95;1.55;;;36.90;61.80;;;;;;5050845;28;20222;-73
2022/06/17 08:35:15;;;;;;;4.28;1.67;;;36.30;62.70;;;;;;5032901;28;20207;-73
2022/06/17 08:37:43;;;;;;;2.33;1.88;;;36.00;62.90;;;;;;5051021;28;20207;-73
2022/06/17 08:40:30;;;;;;;3.40;1.85;;;35.80;63.10;;;;;;5027082;28;20172;-73
2022/06/17 08:43:09;;;;;;;4.47;2.00;;;35.00;63.50;;;;;;5022137;28;20207;-73
2022/06/17 08:46:07;;;;;;;5.32;3.15;;;34.90;64.60;;;;;;5030878;28;20261;-73
2022/06/17 08:49:04;;;;;;;9.73;5.15;;;34.70;65.30;;;;;;5026229;28;20195;-73
2022/06/17 08:51:42;;;;;;;4.65;3.08;;;35.00;64.30;;;;;;5050430;28;20248;-74
2022/06/17 08:54:33;;;;;;;7.93;5.72;;;34.50;63.80;;;;;;5032714;28;20203;-73
2022/06/17 08:57:20;;;;;;;2.75;2.03;;;34.50;64.80;;;;;;4999958;28;20282;-72
2022/06/17 09:00:11;;;;;;;3.78;2.40;;;33.90;64.40;;;;;;5032472;28;20206;-73
2022/06/17 09:03:08;;;;;;;9.80;6.90;;;34.10;64.80;;;;;;5050997;28;20559;-73
2022/06/17 09:06:00;;;;;;;8.65;6.20;;;34.20;64.60;;;;;;5050522;28;20210;-72
2022/06/17 09:08:40;;;;;;;11.02;9.02;;;34.60;64.80;;;;;;5050505;28;20234;-73
2022/06/17 09:11:20;;;;;;;2.60;1.50;;;35.00;63.80;;;;;;5032961;28;20297;-73
2022/06/17 09:14:27;;;;;;;3.38;2.28;;;34.50;62.50;;;;;;5036233;28;20203;-74
2022/06/17 09:17:14;;;;;;;3.45;2.35;;;34.20;62.60;;;;;;5053925;28;20206;-73
2022/06/17 09:19:45;;;;;;;3.47;2.42;;;33.10;63.80;;;;;;5054192;28;20210;-74
2022/06/17 09:22:15;;;;;;;4.53;3.70;;;33.50;64.70;;;;;;5036639;28;20210;-73
2022/06/17 09:24:43;;;;;;;6.18;2.85;;;33.50;64.10;;;;;;5054374;28;20203;-74
2022/06/17 09:27:15;;;;;;;3.42;2.55;;;33.70;63.20;;;;;;5036479;28;20250;-74
2022/06/17 09:29:50;;;;;;;6.85;4.88;;;33.50;62.70;;;;;;5042420;28;20256;-75
2022/06/17 09:32:22;;;;;;;14.93;11.55;;;33.70;63.70;;;;;;5041417;28;20228;-73
2022/06/17 09:35:04;;;;;;;7.22;4.88;;;33.50;63.90;;;;;;5040912;28;20278;-74
2022/06/17 09:37:48;;;;;;;4.63;2.80;;;33.40;63.50;;;;;;5036074;28;20536;-74
2022/06/17 09:40:40;;;;;;;12.48;9.05;;;32.70;64.60;;;;;;5054089;28;20176;-74
2022/06/17 09:43:14;;;;;;;6.90;3.55;;;32.10;66.20;;;;;;5054364;28;20271;-74
2022/06/17 09:45:55;;;;;;;3.38;1.75;;;31.70;66.60;;;;;;5052960;28;20573;-74
2022/06/17 09:48:55;;;;;;;3.13;2.40;;;31.60;66.70;;;;;;5033966;28;20207;-74
2022/06/17 09:51:53;;;;;;;2.75;2.33;;;31.60;66.50;;;;;;5007860;28;20228;-73
2022/06/17 09:54:31;;;;;;;6.22;3.30;;;31.40;67.60;;;;;;5004394;28;20334;-74
2022/06/17 09:57:29;;;;;;;5.25;3.45;;;31.20;67.70;;;;;;5045898;28;20214;-73
2022/06/17 10:00:01;;;;;;;5.65;1.95;;;30.50;69.80;;;;;;5052309;28;20215;-74
2022/06/17 10:02:29;;;;;;;3.25;2.15;;;30.80;69.60;;;;;;5052591;28;20708;-73
2022/06/17 10:04:58;;;;;;;2.72;2.03;;;30.40;69.80;;;;;;5035020;28;20208;-75
2022/06/17 10:07:40;;;;;;;3.33;2.60;;;30.40;70.40;;;;;;5052167;28;20249;-74
2022/06/17 10:10:28;;;;;;;4.00;1.75;;;30.60;71.00;;;;;;5053041;28;20627;-74
2022/06/17 10:13:06;;;;;;;4.85;1.40;;;30.60;69.90;;;;;;5034853;28;20289;-74
2022/06/17 10:18:55;;;;;;;2.90;1.33;;;30.50;70.00;;;;;;5052395;28;20199;-74
2022/06/17 10:21:35;;;;;;;4.93;2.92;;;29.90;71.00;;;;;;5052127;28;20763;-74
2022/06/17 10:24:16;;;;;;;4.80;3.00;;;30.10;72.40;;;;;;5034545;28;20265;-74
2022/06/17 10:26:56;;;;;;;18.15;12.30;;;30.10;72.20;;;;;;5034372;28;20207;-73
2022/06/17 10:29:52;;;;;;;3.13;2.20;;;30.70;71.80;;;;;;5034160;28;20203;-74
2022/06/17 10:32:18;;;;;;;1.77;1.40;;;30.30;70.00;;;;;;5052468;28;20212;-74
2022/06/17 10:34:48;;;;;;;2.17;1.63;;;30.30;71.50;;;;;;5034010;28;20199;-74
2022/06/17 10:37:15;;;;;;;4.38;1.67;;;30.30;71.10;;;;;;5052313;28;20528;-74
2022/06/17 10:39:43;;;;;;;3.40;1.83;;;29.70;71.30;;;;;;5034641;28;20188;-74
2022/06/17 10:42:15;;;;;;;2.28;1.40;;;29.90;72.50;;;;;;5052115;28;20204;-74
2022/06/17 10:44:44;;;;;;;2.40;1.70;;;29.80;71.20;;;;;;5014409;28;1079020;-74
2022/06/17 10:47:37;;;;;;;2.58;1.45;;;29.60;71.30;;;;;;5053001;28;20215;-74
2022/06/17 10:50:17;;;;;;;2.45;1.90;;;29.60;71.60;;;;;;5034633;28;20349;-74
2022/06/17 10:52:52;;;;;;;8.55;4.85;;;29.50;71.20;;;;;;5052313;28;20230;-74
2022/06/17 10:55:23;;;;;;;17.90;11.00;;;29.90;71.90;;;;;;5034800;28;20236;-74
2022/06/17 10:58:19;;;;;;;10.95;7.65;;;30.00;71.50;;;;;;5045400;28;20221;-75
2022/06/17 11:01:11;;;;;;;3.55;2.05;;;30.00;71.30;;;;;;5035239;28;20218;-74
2022/06/17 11:03:39;;;;;;;4.35;3.15;;;29.90;71.00;;;;;;5052764;28;20215;-74
2022/06/17 11:06:22;;;;;;;1.90;1.70;;;30.00;71.40;;;;;;5052307;28;20775;-74
2022/06/17 11:08:48;;;;;;;4.68;2.10;;;29.70;70.10;;;;;;5044165;28;20675;-74
2022/06/17 11:14:05;;;;;;;4.72;3.47;;;29.60;71.10;;;;;;5052695;28;20619;-74
2022/06/17 11:16:41;;;;;;;3.55;2.67;;;29.70;71.90;;;;;;5033958;28;21697;-74
2022/06/17 11:19:21;;;;;;;4.05;3.15;;;29.70;71.20;;;;;;5052824;28;20208;-74
2022/06/17 11:21:51;;;;;;;2.45;1.40;;;29.80;70.20;;;;;;5052393;28;20326;-74
2022/06/17 11:24:31;;;;;;;3.78;2.10;;;29.80;70.70;;;;;;5052147;28;20217;-73
2022/06/17 11:27:27;;;;;;;5.20;3.85;;;29.80;71.80;;;;;;5045223;28;20211;-73
2022/06/17 11:29:54;;;;;;;4.15;2.33;;;29.60;72.00;;;;;;5033689;28;20203;-74
2022/06/17 11:32:20;;;;;;;1.77;1.67;;;29.70;72.30;;;;;;5051755;28;20214;-74
2022/06/17 11:35:25;;;;;;;1.42;1.30;;;29.50;71.30;;;;;;5025100;28;20207;-74
2022/06/17 11:37:51;;;;;;;5.80;4.18;;;29.30;71.00;;;;;;5033734;28;20230;-74
2022/06/17 11:40:21;;;;;;;1.27;1.17;;;29.40;71.70;;;;;;5033662;28;20172;-73
2022/06/17 11:42:59;;;;;;;3.33;1.70;;;29.40;70.80;;;;;;5052217;28;20203;-74
2022/06/17 11:45:29;;;;;;;5.63;2.15;;;29.30;70.40;;;;;;5067704;23;20222;-73
2022/06/17 11:48:17;;;;;;;4.70;1.65;;;29.40;71.00;;;;;;5033319;28;20246;-74
2022/06/17 11:51:10;;;;;;;4.65;2.53;;;29.30;71.00;;;;;;5035779;28;20199;-75
2022/06/17 11:54:25;;;;;;;3.88;2.90;;;29.50;71.40;;;;;;5051813;28;20224;-76
2022/06/17 11:56:54;;;;;;;4.18;1.60;;;29.60;71.30;;;;;;5031732;28;20222;-75
2022/06/17 11:59:32;;;;;;;4.32;2.33;;;29.30;70.30;;;;;;5025679;28;20219;-76
2022/06/17 12:01:57;;;;;;;1.35;1.10;;;29.30;71.40;;;;;;5027594;28;20257;-75
2022/06/17 12:04:41;;;;;;;3.70;1.42;;;29.10;71.90;;;;;;5035837;28;20587;-74
2022/06/17 12:07:26;;;;;;;3.90;1.58;;;29.20;72.50;;;;;;5033181;28;20552;-75
2022/06/17 12:09:59;;;;;;;2.75;1.70;;;29.40;70.60;;;;;;5027411;28;20199;-76
2022/06/17 12:12:26;;;;;;;2.95;1.23;;;29.60;70.50;;;;;;5042829;28;20685;-77
2022/06/17 12:15:17;;;;;;;1.92;1.20;;;29.50;69.70;;;;;;5036699;28;20696;-75
2022/06/17 12:17:45;;;;;;;2.25;1.30;;;29.70;70.20;;;;;;5040654;28;20708;-74
2022/06/17 12:20:24;;;;;;;1.90;1.05;;;29.70;69.50;;;;;;5040146;28;20214;-75
2022/06/17 12:23:00;;;;;;;2.38;1.70;;;29.40;68.60;;;;;;5027982;28;20218;-76
2022/06/17 12:25:34;;;;;;;2.45;1.10;;;29.40;69.50;;;;;;5034826;28;20178;-75
2022/06/17 12:28:16;;;;;;;2.58;1.10;;;29.40;69.10;;;;;;5038898;28;20704;-73
2022/06/17 12:31:02;;;;;;;2.67;1.90;;;29.30;68.70;;;;;;5015497;28;20224;-75
2022/06/17 12:33:38;;;;;;;2.50;1.27;;;29.20;69.50;;;;;;5031340;28;20214;-76
2022/06/17 12:36:06;;;;;;;3.83;1.30;;;28.70;69.10;;;;;;5028678;28;20211;-75
2022/06/17 12:38:37;;;;;;;2.67;1.10;;;28.20;69.50;;;;;;5016346;28;20349;-76
2022/06/17 12:41:23;;;;;;;3.35;2.05;;;27.90;70.80;;;;;;5033909;28;20204;-76
2022/06/17 12:44:15;;;;;;;3.72;1.23;;;28.10;72.60;;;;;;5014028;28;20278;-76
2022/06/17 12:46:59;;;;;;;3.47;1.23;;;28.30;70.90;;;;;;5021061;28;20314;-76
2022/06/17 12:53:15;;;;;;;1.08;0.93;;;28.30;70.20;;;;;;5032099;28;20290;-75
2022/06/17 12:56:21;;;;;;;4.72;2.90;;;27.90;71.10;;;;;;5030038;28;20282;-76
2022/06/17 12:59:09;;;;;;;5.78;4.20;;;28.40;71.60;;;;;;5021650;28;20196;-77
2022/06/17 13:01:47;;;;;;;1.38;0.95;;;29.00;71.60;;;;;;5034011;28;20704;-76
2022/06/17 13:04:22;;;;;;;2.70;1.92;;;29.00;69.70;;;;;;5018453;28;20267;-77
2022/06/17 13:07:28;;;;;;;2.15;1.08;;;29.30;69.90;;;;;;5035581;28;20265;-77
2022/06/17 13:13:29;;;;;;;2.10;1.33;;;29.50;68.50;;;;;;5046029;28;20205;-76
2022/06/17 13:16:00;;;;;;;2.15;1.60;;;29.80;67.10;;;;;;5022820;28;20204;-76
2022/06/17 13:19:03;;;;;;;2.33;1.75;;;29.80;67.60;;;;;;5039275;28;20685;-77
2022/06/17 13:21:37;;;;;;;2.58;1.80;;;29.70;67.10;;;;;;5041040;28;20291;-77
2022/06/17 13:24:08;;;;;;;2.75;1.52;;;29.50;68.80;;;;;;5027705;28;20215;-77
2022/06/17 13:27:04;;;;;;;2.08;1.60;;;29.50;70.00;;;;;;5047950;28;20737;-77
2022/06/17 13:29:34;;;;;;;3.03;2.30;;;29.40;70.70;;;;;;5020286;28;20208;-77
2022/06/17 13:32:03;;;;;;;3.55;1.98;;;29.40;71.10;;;;;;5034526;28;20248;-76
2022/06/17 13:34:34;;;;;;;1.60;1.50;;;29.50;71.80;;;;;;5025891;28;20645;-77
2022/06/17 13:37:29;;;;;;;2.22;1.60;;;29.40;71.20;;;;;;5036399;28;20206;-77